KAQX

Allendale County Airport

Allendale, South Carolina, USA
METAR KAQX 170215Z AUTO 00000KT 10SM CLR 02/00 A3029 RMK AO2 TSNO
Observed Flight Rules
Dec-17 @ 02:15 UTC (17 minutes ago) Visual Flight Rules
Wind Visibility Clouds
Calm 10 miles
  • Clear skies
Temperatures Readings
Current 2°C / 36°F
Dewpoint 0°C / 32°F
Humidity 87%
Altimeter 30.29" Hg
Pressure 1026 hPa
Elevation 49
METAR KAQX 170215Z AUTO 00000KT 10SM CLR 02/00 A3029 RMK AO2 TSNO
Observed Flight Rules
Dec-17 @ 02:15 UTC
(17 minutes ago)
VFR
Wind Visibility
Calm 10 miles
Clouds
  • Clear skies
Temperature Dewpoint
2°C / 36°F 0°C / 32°F
Humidity Altimeter Pressure
87% 30.29" Hg 1026 hPa